sensor_id;sensor_type;location;lat;lon;timestamp;P1;durP1;ratioP1;P2;durP2;ratioP2
17253;SDS011;32542;52.832;13.816;2022-09-09T00:02:54;1.40;;;1.30;;
17253;SDS011;32542;52.832;13.816;2022-09-09T00:06:03;3.70;;;1.30;;
17253;SDS011;32542;52.832;13.816;2022-09-09T00:09:15;2.10;;;1.33;;
17253;SDS011;32542;52.832;13.816;2022-09-09T00:12:22;1.40;;;1.30;;
17253;SDS011;32542;52.832;13.816;2022-09-09T00:15:35;2.13;;;1.30;;
17253;SDS011;32542;52.832;13.816;2022-09-09T00:18:46;1.42;;;1.23;;
17253;SDS011;32542;52.832;13.816;2022-09-09T00:22:02;1.63;;;1.30;;
17253;SDS011;32542;52.832;13.816;2022-09-09T00:25:19;1.25;;;1.15;;
17253;SDS011;32542;52.832;13.816;2022-09-09T00:28:30;2.65;;;1.30;;
17253;SDS011;32542;52.832;13.816;2022-09-09T00:31:38;1.27;;;1.17;;
17253;SDS011;32542;52.832;13.816;2022-09-09T00:34:47;4.15;;;1.50;;
17253;SDS011;32542;52.832;13.816;2022-09-09T00:37:53;2.13;;;1.23;;
17253;SDS011;32542;52.832;13.816;2022-09-09T00:41:01;1.77;;;1.38;;
17253;SDS011;32542;52.832;13.816;2022-09-09T00:44:20;4.22;;;1.70;;
17253;SDS011;32542;52.832;13.816;2022-09-09T00:47:44;5.43;;;1.60;;
17253;SDS011;32542;52.832;13.816;2022-09-09T00:50:49;2.30;;;1.70;;
17253;SDS011;32542;52.832;13.816;2022-09-09T00:54:05;2.10;;;1.90;;
17253;SDS011;32542;52.832;13.816;2022-09-09T00:57:29;2.35;;;1.95;;
17253;SDS011;32542;52.832;13.816;2022-09-09T01:00:35;3.50;;;1.70;;
17253;SDS011;32542;52.832;13.816;2022-09-09T01:03:45;1.90;;;1.45;;
17253;SDS011;32542;52.832;13.816;2022-09-09T01:06:55;1.55;;;1.45;;
17253;SDS011;32542;52.832;13.816;2022-09-09T01:10:07;1.75;;;1.40;;
17253;SDS011;32542;52.832;13.816;2022-09-09T01:13:22;1.33;;;1.23;;
17253;SDS011;32542;52.832;13.816;2022-09-09T01:16:29;1.77;;;1.58;;
17253;SDS011;32542;52.832;13.816;2022-09-09T01:19:37;2.08;;;1.40;;
17253;SDS011;32542;52.832;13.816;2022-09-09T01:23:03;1.75;;;1.42;;
17253;SDS011;32542;52.832;13.816;2022-09-09T01:26:28;1.60;;;1.27;;
17253;SDS011;32542;52.832;13.816;2022-09-09T01:29:38;2.83;;;1.75;;
17253;SDS011;32542;52.832;13.816;2022-09-09T01:32:43;1.38;;;1.27;;
17253;SDS011;32542;52.832;13.816;2022-09-09T01:35:48;1.75;;;1.55;;
17253;SDS011;32542;52.832;13.816;2022-09-09T01:39:00;2.05;;;1.60;;
17253;SDS011;32542;52.832;13.816;2022-09-09T01:42:06;1.88;;;1.35;;
17253;SDS011;32542;52.832;13.816;2022-09-09T01:45:12;1.77;;;1.48;;
17253;SDS011;32542;52.832;13.816;2022-09-09T01:48:15;2.38;;;1.50;;
17253;SDS011;32542;52.832;13.816;2022-09-09T01:51:26;3.47;;;2.00;;
17253;SDS011;32542;52.832;13.816;2022-09-09T01:54:31;2.03;;;1.83;;
17253;SDS011;32542;52.832;13.816;2022-09-09T01:57:47;6.88;;;2.08;;
17253;SDS011;32542;52.832;13.816;2022-09-09T02:00:59;3.88;;;2.22;;
17253;SDS011;32542;52.832;13.816;2022-09-09T02:04:11;5.13;;;2.33;;
17253;SDS011;32542;52.832;13.816;2022-09-09T02:07:29;3.33;;;2.75;;
17253;SDS011;32542;52.832;13.816;2022-09-09T02:10:47;3.70;;;2.38;;
17253;SDS011;32542;52.832;13.816;2022-09-09T02:14:10;2.08;;;1.88;;
17253;SDS011;32542;52.832;13.816;2022-09-09T02:17:21;3.03;;;2.15;;
17253;SDS011;32542;52.832;13.816;2022-09-09T02:20:43;2.75;;;1.92;;
17253;SDS011;32542;52.832;13.816;2022-09-09T02:23:47;2.00;;;1.80;;
17253;SDS011;32542;52.832;13.816;2022-09-09T02:26:54;2.88;;;2.10;;
17253;SDS011;32542;52.832;13.816;2022-09-09T02:30:02;3.80;;;2.13;;
17253;SDS011;32542;52.832;13.816;2022-09-09T02:33:15;3.40;;;2.33;;
17253;SDS011;32542;52.832;13.816;2022-09-09T02:36:22;2.20;;;2.00;;
17253;SDS011;32542;52.832;13.816;2022-09-09T02:39:27;2.13;;;1.88;;
17253;SDS011;32542;52.832;13.816;2022-09-09T02:42:30;2.25;;;2.05;;
17253;SDS011;32542;52.832;13.816;2022-09-09T02:45:39;2.67;;;2.38;;
17253;SDS011;32542;52.832;13.816;2022-09-09T02:48:51;2.40;;;2.00;;
17253;SDS011;32542;52.832;13.816;2022-09-09T02:52:06;3.60;;;2.22;;
17253;SDS011;32542;52.832;13.816;2022-09-09T02:55:14;4.13;;;2.03;;
17253;SDS011;32542;52.832;13.816;2022-09-09T02:58:24;2.22;;;2.03;;
17253;SDS011;32542;52.832;13.816;2022-09-09T03:01:37;3.28;;;2.22;;
17253;SDS011;32542;52.832;13.816;2022-09-09T03:04:43;2.60;;;2.10;;
17253;SDS011;32542;52.832;13.816;2022-09-09T03:07:47;2.55;;;2.10;;
17253;SDS011;32542;52.832;13.816;2022-09-09T03:10:53;4.55;;;2.10;;
17253;SDS011;32542;52.832;13.816;2022-09-09T03:13:58;3.38;;;2.38;;
17253;SDS011;32542;52.832;13.816;2022-09-09T03:17:06;3.40;;;2.28;;
17253;SDS011;32542;52.832;13.816;2022-09-09T03:20:17;4.82;;;2.30;;
17253;SDS011;32542;52.832;13.816;2022-09-09T03:23:20;3.42;;;2.50;;
17253;SDS011;32542;52.832;13.816;2022-09-09T03:26:25;2.55;;;2.10;;
17253;SDS011;32542;52.832;13.816;2022-09-09T03:29:29;2.30;;;2.10;;
17253;SDS011;32542;52.832;13.816;2022-09-09T03:32:36;2.17;;;1.98;;
17253;SDS011;32542;52.832;13.816;2022-09-09T03:35:44;2.53;;;2.20;;
17253;SDS011;32542;52.832;13.816;2022-09-09T03:38:52;2.47;;;2.13;;
17253;SDS011;32542;52.832;13.816;2022-09-09T03:41:57;2.75;;;2.47;;
17253;SDS011;32542;52.832;13.816;2022-09-09T03:45:01;4.03;;;2.70;;
17253;SDS011;32542;52.832;13.816;2022-09-09T03:48:06;2.90;;;2.53;;
17253;SDS011;32542;52.832;13.816;2022-09-09T03:51:11;2.50;;;2.30;;
17253;SDS011;32542;52.832;13.816;2022-09-09T03:54:15;2.25;;;2.05;;
17253;SDS011;32542;52.832;13.816;2022-09-09T03:57:18;2.20;;;2.00;;
17253;SDS011;32542;52.832;13.816;2022-09-09T04:00:22;2.67;;;1.80;;
17253;SDS011;32542;52.832;13.816;2022-09-09T04:03:28;2.67;;;1.63;;
17253;SDS011;32542;52.832;13.816;2022-09-09T04:06:32;2.05;;;1.80;;
17253;SDS011;32542;52.832;13.816;2022-09-09T04:09:35;3.47;;;2.92;;
17253;SDS011;32542;52.832;13.816;2022-09-09T04:12:39;2.20;;;2.00;;
17253;SDS011;32542;52.832;13.816;2022-09-09T04:15:42;2.83;;;2.40;;
17253;SDS011;32542;52.832;13.816;2022-09-09T04:18:48;2.45;;;2.25;;
17253;SDS011;32542;52.832;13.816;2022-09-09T04:21:52;2.28;;;1.63;;
17253;SDS011;32542;52.832;13.816;2022-09-09T04:24:56;3.85;;;2.13;;
17253;SDS011;32542;52.832;13.816;2022-09-09T04:27:59;3.83;;;2.28;;
17253;SDS011;32542;52.832;13.816;2022-09-09T04:31:04;2.10;;;1.90;;
17253;SDS011;32542;52.832;13.816;2022-09-09T04:34:11;3.65;;;1.90;;
17253;SDS011;32542;52.832;13.816;2022-09-09T04:37:14;2.58;;;2.17;;
17253;SDS011;32542;52.832;13.816;2022-09-09T04:40:18;2.33;;;2.13;;
17253;SDS011;32542;52.832;13.816;2022-09-09T04:43:21;2.47;;;2.15;;
17253;SDS011;32542;52.832;13.816;2022-09-09T04:46:27;2.80;;;2.10;;
17253;SDS011;32542;52.832;13.816;2022-09-09T04:49:33;2.42;;;1.90;;
17253;SDS011;32542;52.832;13.816;2022-09-09T04:52:36;3.25;;;2.08;;
17253;SDS011;32542;52.832;13.816;2022-09-09T04:55:40;2.97;;;2.00;;
17253;SDS011;32542;52.832;13.816;2022-09-09T04:58:43;2.67;;;2.05;;
17253;SDS011;32542;52.832;13.816;2022-09-09T05:01:48;3.30;;;2.08;;
17253;SDS011;32542;52.832;13.816;2022-09-09T05:04:53;2.38;;;1.92;;
17253;SDS011;32542;52.832;13.816;2022-09-09T05:08:00;2.60;;;2.40;;
17253;SDS011;32542;52.832;13.816;2022-09-09T05:11:04;1.98;;;1.83;;
17253;SDS011;32542;52.832;13.816;2022-09-09T05:14:18;2.53;;;1.77;;
17253;SDS011;32542;52.832;13.816;2022-09-09T05:17:21;2.80;;;2.20;;
17253;SDS011;32542;52.832;13.816;2022-09-09T05:20:25;3.25;;;2.15;;
17253;SDS011;32542;52.832;13.816;2022-09-09T05:23:29;2.20;;;1.67;;
17253;SDS011;32542;52.832;13.816;2022-09-09T05:26:33;2.00;;;1.80;;
17253;SDS011;32542;52.832;13.816;2022-09-09T05:29:37;2.08;;;1.88;;
17253;SDS011;32542;52.832;13.816;2022-09-09T05:32:42;3.05;;;2.10;;
17253;SDS011;32542;52.832;13.816;2022-09-09T05:35:47;2.22;;;2.03;;
17253;SDS011;32542;52.832;13.816;2022-09-09T05:38:50;4.57;;;1.90;;
17253;SDS011;32542;52.832;13.816;2022-09-09T05:41:55;2.45;;;1.70;;
17253;SDS011;32542;52.832;13.816;2022-09-09T05:44:58;1.98;;;1.77;;
17253;SDS011;32542;52.832;13.816;2022-09-09T05:48:01;1.73;;;1.63;;
17253;SDS011;32542;52.832;13.816;2022-09-09T05:51:06;2.25;;;1.50;;
17253;SDS011;32542;52.832;13.816;2022-09-09T05:54:12;2.15;;;1.67;;
17253;SDS011;32542;52.832;13.816;2022-09-09T05:57:20;3.13;;;1.70;;
17253;SDS011;32542;52.832;13.816;2022-09-09T06:00:25;3.92;;;1.85;;
17253;SDS011;32542;52.832;13.816;2022-09-09T06:03:28;5.07;;;2.00;;
17253;SDS011;32542;52.832;13.816;2022-09-09T06:06:33;5.45;;;1.88;;
17253;SDS011;32542;52.832;13.816;2022-09-09T06:09:43;1.75;;;1.60;;
17253;SDS011;32542;52.832;13.816;2022-09-09T06:12:46;3.17;;;1.80;;
17253;SDS011;32542;52.832;13.816;2022-09-09T06:15:50;2.60;;;1.80;;
17253;SDS011;32542;52.832;13.816;2022-09-09T06:18:54;4.15;;;1.85;;
17253;SDS011;32542;52.832;13.816;2022-09-09T06:22:00;3.35;;;1.77;;
17253;SDS011;32542;52.832;13.816;2022-09-09T06:25:08;4.57;;;1.67;;
17253;SDS011;32542;52.832;13.816;2022-09-09T06:28:13;5.30;;;1.98;;
17253;SDS011;32542;52.832;13.816;2022-09-09T06:31:17;3.95;;;1.80;;
17253;SDS011;32542;52.832;13.816;2022-09-09T06:34:28;6.18;;;1.70;;
17253;SDS011;32542;52.832;13.816;2022-09-09T06:37:34;2.35;;;1.70;;
17253;SDS011;32542;52.832;13.816;2022-09-09T06:40:38;2.95;;;1.77;;
17253;SDS011;32542;52.832;13.816;2022-09-09T06:43:42;2.13;;;1.60;;
17253;SDS011;32542;52.832;13.816;2022-09-09T06:46:46;4.63;;;2.10;;
17253;SDS011;32542;52.832;13.816;2022-09-09T06:49:49;5.50;;;1.90;;
17253;SDS011;32542;52.832;13.816;2022-09-09T06:52:54;2.90;;;1.77;;
17253;SDS011;32542;52.832;13.816;2022-09-09T06:55:57;2.58;;;1.60;;
17253;SDS011;32542;52.832;13.816;2022-09-09T06:59:01;2.88;;;1.40;;
17253;SDS011;32542;52.832;13.816;2022-09-09T07:02:07;2.22;;;1.38;;
17253;SDS011;32542;52.832;13.816;2022-09-09T07:05:10;4.93;;;2.15;;
17253;SDS011;32542;52.832;13.816;2022-09-09T07:08:17;2.33;;;1.50;;
17253;SDS011;32542;52.832;13.816;2022-09-09T07:11:20;1.92;;;1.50;;
17253;SDS011;32542;52.832;13.816;2022-09-09T07:14:25;1.73;;;1.40;;
17253;SDS011;32542;52.832;13.816;2022-09-09T07:17:32;2.83;;;1.50;;
17253;SDS011;32542;52.832;13.816;2022-09-09T07:20:35;4.47;;;1.48;;
17253;SDS011;32542;52.832;13.816;2022-09-09T07:23:40;2.55;;;1.70;;
17253;SDS011;32542;52.832;13.816;2022-09-09T07:26:45;2.70;;;1.50;;
17253;SDS011;32542;52.832;13.816;2022-09-09T07:29:49;1.48;;;1.38;;
17253;SDS011;32542;52.832;13.816;2022-09-09T07:32:55;2.08;;;1.40;;
17253;SDS011;32542;52.832;13.816;2022-09-09T07:36:05;2.97;;;1.20;;
17253;SDS011;32542;52.832;13.816;2022-09-09T07:39:12;2.65;;;1.35;;
17253;SDS011;32542;52.832;13.816;2022-09-09T07:42:22;4.13;;;1.50;;
17253;SDS011;32542;52.832;13.816;2022-09-09T07:45:26;2.03;;;1.35;;
17253;SDS011;32542;52.832;13.816;2022-09-09T07:48:30;2.60;;;1.52;;
17253;SDS011;32542;52.832;13.816;2022-09-09T07:51:34;1.63;;;1.20;;
17253;SDS011;32542;52.832;13.816;2022-09-09T07:54:41;1.70;;;1.42;;
17253;SDS011;32542;52.832;13.816;2022-09-09T07:57:45;2.15;;;1.42;;
17253;SDS011;32542;52.832;13.816;2022-09-09T08:00:49;2.95;;;1.23;;
17253;SDS011;32542;52.832;13.816;2022-09-09T08:03:53;1.92;;;1.20;;
17253;SDS011;32542;52.832;13.816;2022-09-09T08:07:00;4.97;;;1.58;;
17253;SDS011;32542;52.832;13.816;2022-09-09T08:10:10;5.88;;;1.80;;
17253;SDS011;32542;52.832;13.816;2022-09-09T08:13:15;3.85;;;1.60;;
17253;SDS011;32542;52.832;13.816;2022-09-09T08:16:22;5.93;;;1.52;;
17253;SDS011;32542;52.832;13.816;2022-09-09T08:19:26;6.80;;;1.35;;
17253;SDS011;32542;52.832;13.816;2022-09-09T08:22:32;2.53;;;1.30;;
17253;SDS011;32542;52.832;13.816;2022-09-09T08:25:38;4.05;;;1.63;;
17253;SDS011;32542;52.832;13.816;2022-09-09T08:28:41;2.08;;;1.20;;
17253;SDS011;32542;52.832;13.816;2022-09-09T08:31:45;2.80;;;1.48;;
17253;SDS011;32542;52.832;13.816;2022-09-09T08:34:50;4.00;;;1.27;;
17253;SDS011;32542;52.832;13.816;2022-09-09T08:37:57;3.80;;;1.30;;
17253;SDS011;32542;52.832;13.816;2022-09-09T08:41:07;2.65;;;1.23;;
17253;SDS011;32542;52.832;13.816;2022-09-09T08:44:26;4.18;;;1.30;;
17253;SDS011;32542;52.832;13.816;2022-09-09T08:47:44;4.40;;;2.05;;
17253;SDS011;32542;52.832;13.816;2022-09-09T08:50:57;3.20;;;1.20;;
17253;SDS011;32542;52.832;13.816;2022-09-09T08:54:07;2.97;;;1.40;;
17253;SDS011;32542;52.832;13.816;2022-09-09T08:57:14;2.60;;;1.27;;
17253;SDS011;32542;52.832;13.816;2022-09-09T09:00:22;1.70;;;1.20;;
17253;SDS011;32542;52.832;13.816;2022-09-09T09:03:38;2.88;;;1.30;;
17253;SDS011;32542;52.832;13.816;2022-09-09T09:06:54;5.28;;;1.27;;
17253;SDS011;32542;52.832;13.816;2022-09-09T09:10:10;1.88;;;1.10;;
17253;SDS011;32542;52.832;13.816;2022-09-09T09:13:44;2.90;;;1.63;;
17253;SDS011;32542;52.832;13.816;2022-09-09T09:16:56;1.48;;;1.10;;
17253;SDS011;32542;52.832;13.816;2022-09-09T09:20:02;2.22;;;1.10;;
17253;SDS011;32542;52.832;13.816;2022-09-09T09:23:06;2.78;;;1.20;;
17253;SDS011;32542;52.832;13.816;2022-09-09T09:26:17;1.83;;;1.30;;
17253;SDS011;32542;52.832;13.816;2022-09-09T09:29:23;2.80;;;1.23;;
17253;SDS011;32542;52.832;13.816;2022-09-09T09:32:31;3.05;;;1.13;;
17253;SDS011;32542;52.832;13.816;2022-09-09T09:35:39;1.80;;;1.00;;
17253;SDS011;32542;52.832;13.816;2022-09-09T09:38:51;3.65;;;1.50;;
17253;SDS011;32542;52.832;13.816;2022-09-09T09:42:17;2.58;;;1.65;;
17253;SDS011;32542;52.832;13.816;2022-09-09T09:45:29;4.45;;;1.10;;
17253;SDS011;32542;52.832;13.816;2022-09-09T09:48:37;1.70;;;1.30;;
17253;SDS011;32542;52.832;13.816;2022-09-09T09:51:41;1.75;;;1.15;;
17253;SDS011;32542;52.832;13.816;2022-09-09T09:54:44;2.72;;;1.30;;
17253;SDS011;32542;52.832;13.816;2022-09-09T09:57:48;3.47;;;1.10;;
17253;SDS011;32542;52.832;13.816;2022-09-09T10:00:52;3.17;;;1.10;;
17253;SDS011;32542;52.832;13.816;2022-09-09T10:04:00;1.52;;;0.95;;
17253;SDS011;32542;52.832;13.816;2022-09-09T10:07:09;3.45;;;1.33;;
17253;SDS011;32542;52.832;13.816;2022-09-09T10:10:15;1.67;;;0.90;;
17253;SDS011;32542;52.832;13.816;2022-09-09T10:13:27;12.45;;;1.80;;
17253;SDS011;32542;52.832;13.816;2022-09-09T10:16:44;6.53;;;1.45;;
17253;SDS011;32542;52.832;13.816;2022-09-09T10:20:00;8.48;;;1.20;;
17253;SDS011;32542;52.832;13.816;2022-09-09T10:23:25;5.57;;;1.20;;
17253;SDS011;32542;52.832;13.816;2022-09-09T10:26:40;1.98;;;1.23;;
17253;SDS011;32542;52.832;13.816;2022-09-09T10:29:57;4.85;;;1.17;;
17253;SDS011;32542;52.832;13.816;2022-09-09T10:33:12;5.60;;;1.35;;
17253;SDS011;32542;52.832;13.816;2022-09-09T10:36:23;13.68;;;1.67;;
17253;SDS011;32542;52.832;13.816;2022-09-09T10:39:31;2.60;;;1.00;;
17253;SDS011;32542;52.832;13.816;2022-09-09T10:42:43;12.30;;;1.75;;
17253;SDS011;32542;52.832;13.816;2022-09-09T10:45:52;4.00;;;1.42;;
17253;SDS011;32542;52.832;13.816;2022-09-09T10:49:09;2.53;;;1.13;;
17253;SDS011;32542;52.832;13.816;2022-09-09T10:52:24;3.42;;;1.23;;
17253;SDS011;32542;52.832;13.816;2022-09-09T10:55:37;5.53;;;1.23;;
17253;SDS011;32542;52.832;13.816;2022-09-09T10:58:44;3.80;;;1.23;;
17253;SDS011;32542;52.832;13.816;2022-09-09T11:01:51;4.10;;;1.40;;
17253;SDS011;32542;52.832;13.816;2022-09-09T11:05:02;6.00;;;1.23;;
17253;SDS011;32542;52.832;13.816;2022-09-09T11:08:10;6.82;;;1.40;;
17253;SDS011;32542;52.832;13.816;2022-09-09T11:11:17;3.85;;;1.08;;
17253;SDS011;32542;52.832;13.816;2022-09-09T11:14:27;1.40;;;0.82;;
17253;SDS011;32542;52.832;13.816;2022-09-09T11:17:39;8.45;;;1.15;;
17253;SDS011;32542;52.832;13.816;2022-09-09T11:20:50;4.10;;;1.13;;
17253;SDS011;32542;52.832;13.816;2022-09-09T11:23:59;6.22;;;1.13;;
17253;SDS011;32542;52.832;13.816;2022-09-09T11:27:08;6.20;;;1.15;;
17253;SDS011;32542;52.832;13.816;2022-09-09T11:30:15;3.50;;;2.08;;
17253;SDS011;32542;52.832;13.816;2022-09-09T11:33:47;7.28;;;1.35;;
17253;SDS011;32542;52.832;13.816;2022-09-09T11:40:55;1.65;;;1.00;;
17253;SDS011;32542;52.832;13.816;2022-09-09T11:44:08;4.20;;;1.10;;
17253;SDS011;32542;52.832;13.816;2022-09-09T11:47:19;3.38;;;1.10;;
17253;SDS011;32542;52.832;13.816;2022-09-09T11:50:33;2.78;;;1.02;;
17253;SDS011;32542;52.832;13.816;2022-09-09T11:53:48;3.15;;;1.23;;
17253;SDS011;32542;52.832;13.816;2022-09-09T11:56:55;2.25;;;1.00;;
17253;SDS011;32542;52.832;13.816;2022-09-09T11:59:59;3.10;;;1.02;;
17253;SDS011;32542;52.832;13.816;2022-09-09T12:06:44;3.25;;;0.90;;
17253;SDS011;32542;52.832;13.816;2022-09-09T12:09:49;3.13;;;1.08;;
17253;SDS011;32542;52.832;13.816;2022-09-09T12:13:08;3.67;;;1.13;;
17253;SDS011;32542;52.832;13.816;2022-09-09T12:16:27;5.10;;;1.13;;
17253;SDS011;32542;52.832;13.816;2022-09-09T12:19:35;5.78;;;1.20;;
17253;SDS011;32542;52.832;13.816;2022-09-09T12:22:42;2.47;;;1.02;;
17253;SDS011;32542;52.832;13.816;2022-09-09T12:26:00;3.67;;;1.10;;
17253;SDS011;32542;52.832;13.816;2022-09-09T12:29:16;2.78;;;0.90;;
17253;SDS011;32542;52.832;13.816;2022-09-09T12:32:27;3.83;;;1.20;;
17253;SDS011;32542;52.832;13.816;2022-09-09T12:35:31;4.57;;;1.08;;
17253;SDS011;32542;52.832;13.816;2022-09-09T12:38:35;5.28;;;1.15;;
17253;SDS011;32542;52.832;13.816;2022-09-09T12:41:41;4.88;;;1.10;;
17253;SDS011;32542;52.832;13.816;2022-09-09T12:45:00;3.70;;;1.30;;
17253;SDS011;32542;52.832;13.816;2022-09-09T12:48:05;3.10;;;1.23;;
17253;SDS011;32542;52.832;13.816;2022-09-09T12:51:16;6.07;;;1.13;;
17253;SDS011;32542;52.832;13.816;2022-09-09T12:54:22;1.60;;;0.85;;
17253;SDS011;32542;52.832;13.816;2022-09-09T12:57:25;8.05;;;1.10;;
17253;SDS011;32542;52.832;13.816;2022-09-09T13:00:35;3.08;;;1.33;;
17253;SDS011;32542;52.832;13.816;2022-09-09T13:03:42;5.32;;;1.23;;
17253;SDS011;32542;52.832;13.816;2022-09-09T13:06:48;4.47;;;1.30;;
17253;SDS011;32542;52.832;13.816;2022-09-09T13:09:53;6.95;;;1.90;;
17253;SDS011;32542;52.832;13.816;2022-09-09T13:12:56;5.18;;;1.80;;
17253;SDS011;32542;52.832;13.816;2022-09-09T13:16:01;8.60;;;2.40;;
17253;SDS011;32542;52.832;13.816;2022-09-09T13:19:07;6.53;;;1.80;;
17253;SDS011;32542;52.832;13.816;2022-09-09T13:22:12;11.23;;;1.50;;
17253;SDS011;32542;52.832;13.816;2022-09-09T13:25:21;4.85;;;1.58;;
17253;SDS011;32542;52.832;13.816;2022-09-09T13:28:28;9.25;;;1.67;;
17253;SDS011;32542;52.832;13.816;2022-09-09T13:31:37;9.98;;;2.10;;
17253;SDS011;32542;52.832;13.816;2022-09-09T13:34:40;3.33;;;1.38;;
17253;SDS011;32542;52.832;13.816;2022-09-09T13:37:53;5.35;;;1.40;;
17253;SDS011;32542;52.832;13.816;2022-09-09T13:40:57;6.35;;;1.73;;
17253;SDS011;32542;52.832;13.816;2022-09-09T13:44:03;9.50;;;1.88;;
17253;SDS011;32542;52.832;13.816;2022-09-09T13:47:17;5.72;;;1.80;;
17253;SDS011;32542;52.832;13.816;2022-09-09T13:50:22;4.97;;;1.40;;
17253;SDS011;32542;52.832;13.816;2022-09-09T13:53:27;5.00;;;1.83;;
17253;SDS011;32542;52.832;13.816;2022-09-09T13:56:32;5.03;;;1.50;;
17253;SDS011;32542;52.832;13.816;2022-09-09T13:59:34;3.60;;;1.20;;
17253;SDS011;32542;52.832;13.816;2022-09-09T14:02:59;4.32;;;1.50;;
17253;SDS011;32542;52.832;13.816;2022-09-09T14:06:03;8.73;;;1.80;;
17253;SDS011;32542;52.832;13.816;2022-09-09T14:09:07;4.25;;;1.35;;
17253;SDS011;32542;52.832;13.816;2022-09-09T14:12:12;3.53;;;1.40;;
17253;SDS011;32542;52.832;13.816;2022-09-09T14:15:16;7.50;;;1.42;;
17253;SDS011;32542;52.832;13.816;2022-09-09T14:18:21;4.65;;;1.38;;
17253;SDS011;32542;52.832;13.816;2022-09-09T14:21:27;2.70;;;1.20;;
17253;SDS011;32542;52.832;13.816;2022-09-09T14:24:30;6.35;;;1.27;;
17253;SDS011;32542;52.832;13.816;2022-09-09T14:27:33;2.95;;;1.30;;
17253;SDS011;32542;52.832;13.816;2022-09-09T14:30:37;6.00;;;1.30;;
17253;SDS011;32542;52.832;13.816;2022-09-09T14:33:42;6.78;;;1.05;;
17253;SDS011;32542;52.832;13.816;2022-09-09T14:36:45;3.28;;;1.35;;
17253;SDS011;32542;52.832;13.816;2022-09-09T14:39:48;2.33;;;0.90;;
17253;SDS011;32542;52.832;13.816;2022-09-09T14:42:52;4.40;;;1.10;;
17253;SDS011;32542;52.832;13.816;2022-09-09T14:45:57;8.27;;;1.75;;
17253;SDS011;32542;52.832;13.816;2022-09-09T14:49:01;9.75;;;1.60;;
17253;SDS011;32542;52.832;13.816;2022-09-09T14:52:04;8.60;;;1.30;;
17253;SDS011;32542;52.832;13.816;2022-09-09T14:55:08;8.35;;;1.20;;
17253;SDS011;32542;52.832;13.816;2022-09-09T14:58:11;6.45;;;1.10;;
17253;SDS011;32542;52.832;13.816;2022-09-09T15:01:15;4.68;;;1.08;;
17253;SDS011;32542;52.832;13.816;2022-09-09T15:04:20;5.32;;;1.10;;
17253;SDS011;32542;52.832;13.816;2022-09-09T15:07:23;5.30;;;1.60;;
17253;SDS011;32542;52.832;13.816;2022-09-09T15:10:26;5.43;;;1.33;;
17253;SDS011;32542;52.832;13.816;2022-09-09T15:13:29;1.98;;;0.95;;
17253;SDS011;32542;52.832;13.816;2022-09-09T15:16:33;3.50;;;1.05;;
17253;SDS011;32542;52.832;13.816;2022-09-09T15:19:38;2.20;;;0.70;;
17253;SDS011;32542;52.832;13.816;2022-09-09T15:22:41;4.32;;;0.93;;
17253;SDS011;32542;52.832;13.816;2022-09-09T15:25:51;5.97;;;1.20;;
17253;SDS011;32542;52.832;13.816;2022-09-09T15:28:54;3.22;;;1.00;;
17253;SDS011;32542;52.832;13.816;2022-09-09T15:32:00;1.85;;;0.80;;
17253;SDS011;32542;52.832;13.816;2022-09-09T15:35:06;2.40;;;0.90;;
17253;SDS011;32542;52.832;13.816;2022-09-09T15:38:09;2.97;;;0.90;;
17253;SDS011;32542;52.832;13.816;2022-09-09T15:41:14;1.95;;;0.88;;
17253;SDS011;32542;52.832;13.816;2022-09-09T15:44:19;4.60;;;1.05;;
17253;SDS011;32542;52.832;13.816;2022-09-09T15:47:21;5.72;;;1.08;;
17253;SDS011;32542;52.832;13.816;2022-09-09T15:50:26;1.65;;;0.90;;
17253;SDS011;32542;52.832;13.816;2022-09-09T15:53:30;3.90;;;1.20;;
17253;SDS011;32542;52.832;13.816;2022-09-09T15:56:34;1.77;;;0.90;;
17253;SDS011;32542;52.832;13.816;2022-09-09T15:59:37;1.88;;;1.00;;
17253;SDS011;32542;52.832;13.816;2022-09-09T16:02:41;3.78;;;1.17;;
17253;SDS011;32542;52.832;13.816;2022-09-09T16:05:46;2.20;;;0.90;;
17253;SDS011;32542;52.832;13.816;2022-09-09T16:08:53;1.60;;;0.93;;
17253;SDS011;32542;52.832;13.816;2022-09-09T16:11:57;1.80;;;0.73;;
17253;SDS011;32542;52.832;13.816;2022-09-09T16:15:02;1.48;;;0.80;;
17253;SDS011;32542;52.832;13.816;2022-09-09T16:18:05;2.65;;;1.15;;
17253;SDS011;32542;52.832;13.816;2022-09-09T16:21:11;2.28;;;1.23;;
17253;SDS011;32542;52.832;13.816;2022-09-09T16:24:17;2.20;;;1.00;;
17253;SDS011;32542;52.832;13.816;2022-09-09T16:27:22;2.13;;;1.00;;
17253;SDS011;32542;52.832;13.816;2022-09-09T16:30:25;1.55;;;0.85;;
17253;SDS011;32542;52.832;13.816;2022-09-09T16:33:28;2.58;;;1.10;;
17253;SDS011;32542;52.832;13.816;2022-09-09T16:36:34;2.03;;;1.13;;
17253;SDS011;32542;52.832;13.816;2022-09-09T16:39:38;2.97;;;1.30;;
17253;SDS011;32542;52.832;13.816;2022-09-09T16:42:41;2.35;;;1.27;;
17253;SDS011;32542;52.832;13.816;2022-09-09T16:45:44;3.53;;;1.23;;
17253;SDS011;32542;52.832;13.816;2022-09-09T16:48:47;2.88;;;0.90;;
17253;SDS011;32542;52.832;13.816;2022-09-09T16:51:52;1.20;;;0.90;;
17253;SDS011;32542;52.832;13.816;2022-09-09T16:54:56;1.85;;;0.98;;
17253;SDS011;32542;52.832;13.816;2022-09-09T16:57:59;3.63;;;1.08;;
17253;SDS011;32542;52.832;13.816;2022-09-09T17:01:02;1.08;;;0.77;;
17253;SDS011;32542;52.832;13.816;2022-09-09T17:04:06;4.10;;;1.10;;
17253;SDS011;32542;52.832;13.816;2022-09-09T17:07:13;2.53;;;1.08;;
17253;SDS011;32542;52.832;13.816;2022-09-09T17:10:16;1.75;;;0.90;;
17253;SDS011;32542;52.832;13.816;2022-09-09T17:13:19;2.95;;;1.15;;
17253;SDS011;32542;52.832;13.816;2022-09-09T17:16:23;4.95;;;0.90;;
17253;SDS011;32542;52.832;13.816;2022-09-09T17:19:28;1.25;;;0.80;;
17253;SDS011;32542;52.832;13.816;2022-09-09T17:22:33;1.67;;;0.98;;
17253;SDS011;32542;52.832;13.816;2022-09-09T17:25:36;3.00;;;1.10;;
17253;SDS011;32542;52.832;13.816;2022-09-09T17:28:40;2.85;;;1.42;;
17253;SDS011;32542;52.832;13.816;2022-09-09T17:31:44;1.85;;;0.80;;
17253;SDS011;32542;52.832;13.816;2022-09-09T17:34:47;1.73;;;1.00;;
17253;SDS011;32542;52.832;13.816;2022-09-09T17:37:53;2.88;;;1.00;;
17253;SDS011;32542;52.832;13.816;2022-09-09T17:41:00;1.85;;;1.10;;
17253;SDS011;32542;52.832;13.816;2022-09-09T17:44:04;3.55;;;1.33;;
17253;SDS011;32542;52.832;13.816;2022-09-09T17:47:13;3.13;;;0.85;;
17253;SDS011;32542;52.832;13.816;2022-09-09T17:50:16;2.75;;;1.10;;
17253;SDS011;32542;52.832;13.816;2022-09-09T17:53:21;3.50;;;0.93;;
17253;SDS011;32542;52.832;13.816;2022-09-09T17:56:24;1.17;;;0.98;;
17253;SDS011;32542;52.832;13.816;2022-09-09T17:59:31;1.40;;;0.93;;
17253;SDS011;32542;52.832;13.816;2022-09-09T18:02:34;1.25;;;0.80;;
17253;SDS011;32542;52.832;13.816;2022-09-09T18:05:39;3.22;;;1.10;;
17253;SDS011;32542;52.832;13.816;2022-09-09T18:08:46;1.38;;;0.90;;
17253;SDS011;32542;52.832;13.816;2022-09-09T18:11:51;2.33;;;1.10;;
17253;SDS011;32542;52.832;13.816;2022-09-09T18:14:56;2.28;;;0.88;;
17253;SDS011;32542;52.832;13.816;2022-09-09T18:18:04;2.45;;;1.13;;
17253;SDS011;32542;52.832;13.816;2022-09-09T18:21:09;1.60;;;0.90;;
17253;SDS011;32542;52.832;13.816;2022-09-09T18:24:14;3.63;;;1.30;;
17253;SDS011;32542;52.832;13.816;2022-09-09T18:27:18;2.08;;;0.98;;
17253;SDS011;32542;52.832;13.816;2022-09-09T18:30:21;2.15;;;1.10;;
17253;SDS011;32542;52.832;13.816;2022-09-09T18:33:24;2.38;;;1.15;;
17253;SDS011;32542;52.832;13.816;2022-09-09T18:36:29;2.70;;;1.00;;
17253;SDS011;32542;52.832;13.816;2022-09-09T18:39:35;1.67;;;0.90;;